Time;durP1;ratioP1;P1;durP2;ratioP2;P2;SDS_P1;SDS_P2;PMS_P1;PMS_P2;Temp;Humidity;BMP_temperature;BMP_pressure;BME280_temperature;BME280_humidity;BME280_pressure;Samples;Min_cycle;Max_cycle;Signal;HPM_P1;HPM_P2
2022/01/30 00:01:53;;;;;;;27.73;3.30;;;6.50;99.90;;;;;;5024140;28;20038;-77
2022/01/30 00:04:19;;;;;;;22.55;3.53;;;6.40;99.90;;;;;;5008695;28;20505;-78
2022/01/30 00:06:45;;;;;;;27.40;3.40;;;6.40;99.90;;;;;;5009675;28;20034;-77
2022/01/30 00:09:19;;;;;;;27.20;3.58;;;6.40;99.90;;;;;;5013278;28;20022;-78
2022/01/30 00:11:50;;;;;;;33.17;4.20;;;6.30;99.90;;;;;;5013713;28;20042;-77
2022/01/30 00:14:18;;;;;;;30.10;2.80;;;6.30;99.90;;;;;;5013443;28;20026;-76
2022/01/30 00:16:43;;;;;;;27.27;3.33;;;6.30;99.90;;;;;;5013345;28;20030;-78
2022/01/30 00:19:22;;;;;;;22.30;2.58;;;6.10;99.90;;;;;;5012926;28;20487;-77
2022/01/30 00:21:52;;;;;;;32.35;4.38;;;6.10;99.90;;;;;;5013185;28;20042;-77
2022/01/30 00:24:33;;;;;;;28.88;3.40;;;6.00;99.90;;;;;;5014115;28;20046;-78
2022/01/30 00:26:58;;;;;;;30.40;3.00;;;6.00;99.90;;;;;;5010690;28;20038;-77
2022/01/30 00:29:24;;;;;;;31.40;3.90;;;5.90;99.90;;;;;;5012982;28;20022;-77
2022/01/30 00:31:50;;;;;;;33.97;4.13;;;5.80;99.90;;;;;;5027342;28;20026;-77
2022/01/30 00:34:15;;;;;;;29.52;2.35;;;5.80;99.90;;;;;;5013490;28;20082;-76
2022/01/30 00:36:41;;;;;;;27.45;3.13;;;5.70;99.90;;;;;;5012154;28;20033;-77
2022/01/30 00:39:06;;;;;;;29.70;3.85;;;5.70;99.90;;;;;;5012592;28;20054;-77
2022/01/30 00:41:32;;;;;;;27.70;3.22;;;5.70;99.90;;;;;;5012416;28;20072;-76
2022/01/30 00:43:58;;;;;;;22.90;3.33;;;5.70;99.90;;;;;;5010130;28;20037;-76
2022/01/30 00:46:23;;;;;;;28.27;2.58;;;5.60;99.90;;;;;;5011384;28;20109;-78
2022/01/30 00:48:49;;;;;;;25.10;3.45;;;5.60;99.90;;;;;;5012447;28;20092;-76
2022/01/30 00:51:17;;;;;;;24.17;2.97;;;5.50;99.90;;;;;;5012861;28;20034;-77
2022/01/30 00:53:44;;;;;;;25.88;2.10;;;5.50;99.90;;;;;;5012593;28;20030;-77
2022/01/30 00:56:10;;;;;;;19.42;2.20;;;5.50;99.90;;;;;;5012590;28;20041;-77
2022/01/30 00:58:35;;;;;;;27.08;2.78;;;5.40;99.90;;;;;;5011393;28;20578;-78
2022/01/30 01:01:01;;;;;;;31.60;3.92;;;5.40;99.90;;;;;;5028024;28;20124;-77
2022/01/30 01:03:26;;;;;;;32.67;3.85;;;5.30;99.90;;;;;;5012428;28;20064;-77
2022/01/30 01:05:52;;;;;;;26.08;2.40;;;5.20;99.90;;;;;;5026937;28;20033;-77
2022/01/30 01:08:28;;;;;;;29.55;2.78;;;5.20;99.90;;;;;;5012964;28;20025;-77
2022/01/30 01:11:01;;;;;;;32.33;3.05;;;5.20;99.90;;;;;;5013420;28;20033;-77
2022/01/30 01:13:53;;;;;;;32.65;3.33;;;5.20;99.90;;;;;;5012387;28;20385;-77
2022/01/30 01:24:30;;;;;;;22.45;3.45;;;5.80;99.90;;;;;;5011639;28;20085;-77
2022/01/30 01:26:56;;;;;;;33.70;3.10;;;5.80;99.90;;;;;;5012070;28;20077;-76
2022/01/30 01:29:21;;;;;;;28.33;3.15;;;5.70;99.90;;;;;;5012141;28;20097;-76
2022/01/30 01:31:47;;;;;;;25.15;3.35;;;5.70;99.90;;;;;;5010380;28;20033;-76
2022/01/30 01:34:29;;;;;;;30.00;3.28;;;5.70;99.90;;;;;;5012681;28;20092;-76
2022/01/30 01:36:54;;;;;;;29.20;3.15;;;5.60;99.90;;;;;;5011243;28;20022;-77
2022/01/30 01:39:20;;;;;;;25.88;1.98;;;5.60;99.90;;;;;;5012329;28;20099;-76
2022/01/30 01:41:45;;;;;;;39.88;4.05;;;5.60;99.90;;;;;;5010795;28;20034;-77
2022/01/30 01:44:16;;;;;;;26.45;2.85;;;5.50;99.90;;;;;;5010825;28;20064;-76
2022/01/30 01:46:42;;;;;;;35.33;3.65;;;5.50;99.90;;;;;;5011242;28;20033;-76
2022/01/30 01:49:13;;;;;;;17.50;2.53;;;5.40;99.90;;;;;;5011603;28;20048;-76
2022/01/30 01:51:46;;;;;;;20.95;3.35;;;5.40;99.90;;;;;;5011213;28;20057;-76
2022/01/30 01:54:12;;;;;;;27.92;2.85;;;5.30;99.90;;;;;;5009484;28;20022;-76
2022/01/30 01:56:38;;;;;;;25.92;2.25;;;5.30;99.90;;;;;;5007653;28;20089;-76
2022/01/30 01:59:04;;;;;;;22.77;2.53;;;5.20;99.90;;;;;;5011380;28;20030;-76
2022/01/30 02:01:29;;;;;;;32.67;3.00;;;5.20;99.90;;;;;;5010057;28;20115;-76
2022/01/30 02:03:55;;;;;;;25.08;2.50;;;5.20;99.90;;;;;;5011346;28;20104;-77
2022/01/30 02:06:23;;;;;;;27.73;2.83;;;5.20;99.90;;;;;;5012581;28;20022;-77
2022/01/30 02:08:54;;;;;;;23.02;2.88;;;5.20;99.90;;;;;;5010315;28;20496;-77
2022/01/30 02:11:39;;;;;;;24.85;3.25;;;5.10;99.90;;;;;;5011085;28;20041;-76
2022/01/30 02:25:46;;;;;;;32.65;3.30;;;4.90;99.90;;;;;;5011359;28;20057;-76
2022/01/30 02:27:49;;;;;;;26.80;3.13;;;4.90;99.90;;;;;;5007906;28;20084;-77
2022/01/30 02:30:18;;;;;;;30.17;2.80;;;4.90;99.90;;;;;;5007858;28;20029;-76
2022/01/30 02:32:45;;;;;;;22.15;3.63;;;4.90;99.90;;;;;;5010627;28;20034;-76
2022/01/30 02:35:11;;;;;;;21.65;2.28;;;4.90;99.90;;;;;;5010144;28;20068;-76
2022/01/30 02:37:37;;;;;;;31.55;3.97;;;4.90;99.90;;;;;;5009414;28;20057;-76
2022/01/30 02:40:07;;;;;;;24.33;2.20;;;4.90;99.90;;;;;;5010647;28;20092;-76
2022/01/30 02:42:36;;;;;;;27.80;2.38;;;4.90;99.90;;;;;;5008880;28;20457;-76
2022/01/30 02:45:05;;;;;;;26.20;3.70;;;4.90;99.90;;;;;;5010479;28;20076;-76
2022/01/30 02:52:35;;;;;;;24.00;2.80;;;4.90;99.90;;;;;;5010022;28;20030;-76
2022/01/30 02:55:02;;;;;;;28.83;2.38;;;4.80;99.90;;;;;;5010337;28;20060;-76
2022/01/30 02:57:27;;;;;;;27.58;2.42;;;4.80;99.90;;;;;;5009670;28;20072;-78
2022/01/30 02:59:53;;;;;;;21.70;3.90;;;4.80;99.90;;;;;;5009935;28;20025;-77
2022/01/30 03:02:18;;;;;;;24.52;2.30;;;4.70;99.90;;;;;;5010155;28;20216;-76
2022/01/30 03:04:44;;;;;;;21.17;2.15;;;4.70;99.90;;;;;;5010550;28;20041;-76
2022/01/30 03:07:09;;;;;;;23.65;1.80;;;4.60;99.90;;;;;;5009824;28;20030;-76
2022/01/30 03:09:35;;;;;;;25.05;3.05;;;4.60;99.90;;;;;;5009852;28;20018;-76
2022/01/30 03:12:03;;;;;;;30.63;3.90;;;4.60;99.90;;;;;;5011074;28;20404;-76
2022/01/30 03:14:28;;;;;;;26.02;2.70;;;4.60;99.90;;;;;;5009712;28;20088;-76
2022/01/30 03:16:54;;;;;;;25.50;2.08;;;4.70;99.90;;;;;;5010461;28;20038;-76
2022/01/30 03:19:20;;;;;;;25.67;1.98;;;4.70;99.90;;;;;;5009409;28;20037;-76
2022/01/30 03:21:46;;;;;;;31.60;2.67;;;4.80;99.90;;;;;;5010664;28;20050;-76
2022/01/30 03:24:11;;;;;;;30.77;2.53;;;5.00;99.90;;;;;;5005313;28;20034;-76
2022/01/30 03:26:39;;;;;;;19.83;2.60;;;5.10;99.90;;;;;;5009225;28;20044;-75
2022/01/30 03:29:07;;;;;;;22.58;3.05;;;5.20;99.90;;;;;;5009259;28;20034;-76
2022/01/30 03:31:41;;;;;;;28.42;2.40;;;5.30;99.90;;;;;;5009598;28;20037;-76
2022/01/30 03:34:08;;;;;;;18.95;2.22;;;5.40;99.90;;;;;;5008574;28;20022;-77
2022/01/30 03:36:34;;;;;;;22.17;2.30;;;5.40;99.90;;;;;;5009670;28;20045;-77
2022/01/30 03:39:00;;;;;;;27.92;2.20;;;5.40;99.90;;;;;;5009402;28;20524;-76
2022/01/30 03:41:26;;;;;;;30.75;3.03;;;5.30;99.90;;;;;;5010303;28;20041;-76
2022/01/30 03:43:52;;;;;;;25.33;2.38;;;5.30;99.90;;;;;;5014225;28;20092;-76
2022/01/30 03:46:19;;;;;;;34.78;3.42;;;5.20;99.90;;;;;;5012925;28;20481;-76
2022/01/30 03:48:45;;;;;;;25.50;1.80;;;5.10;99.90;;;;;;5011527;28;20033;-76
2022/01/30 03:51:11;;;;;;;24.25;2.35;;;5.10;99.90;;;;;;5029325;28;20026;-77
2022/01/30 03:53:36;;;;;;;23.73;2.15;;;5.00;99.90;;;;;;5013062;28;20116;-76
2022/01/30 03:56:03;;;;;;;29.00;2.53;;;5.00;99.90;;;;;;5013266;28;20031;-76
2022/01/30 03:58:28;;;;;;;26.02;1.95;;;4.90;99.90;;;;;;5013094;28;20128;-77
2022/01/30 04:00:54;;;;;;;18.40;1.42;;;4.80;99.90;;;;;;5007499;28;20456;-76
2022/01/30 04:03:19;;;;;;;33.90;2.65;;;4.70;99.90;;;;;;5014075;28;20034;-76
2022/01/30 04:05:45;;;;;;;25.85;2.25;;;4.60;99.90;;;;;;5013493;28;20037;-77
2022/01/30 04:08:11;;;;;;;24.92;2.75;;;4.60;99.90;;;;;;5011812;28;20026;-77
2022/01/30 04:10:37;;;;;;;22.65;1.92;;;4.60;99.90;;;;;;5012625;28;20034;-76
2022/01/30 04:13:03;;;;;;;18.48;1.15;;;4.60;99.90;;;;;;5012720;28;20032;-75
2022/01/30 04:15:29;;;;;;;23.92;2.75;;;4.50;99.90;;;;;;5013788;28;20034;-76
2022/01/30 04:17:55;;;;;;;21.33;1.92;;;4.50;99.90;;;;;;5013320;28;20030;-76
2022/01/30 04:20:20;;;;;;;20.40;1.92;;;4.50;99.90;;;;;;5011614;28;20456;-76
2022/01/30 04:22:46;;;;;;;16.42;1.77;;;4.50;99.90;;;;;;5012881;28;20040;-76
2022/01/30 04:25:12;;;;;;;14.35;1.00;;;4.50;99.90;;;;;;5013987;28;20048;-76
2022/01/30 04:27:37;;;;;;;19.65;1.95;;;4.50;99.90;;;;;;5013584;28;20359;-76
2022/01/30 04:30:05;;;;;;;17.42;1.45;;;4.50;99.90;;;;;;5012069;28;20030;-75
2022/01/30 04:32:33;;;;;;;14.85;1.50;;;4.50;99.90;;;;;;5010950;28;20092;-76
2022/01/30 04:35:00;;;;;;;21.42;2.10;;;4.50;99.90;;;;;;5007618;28;20095;-76
2022/01/30 04:37:41;;;;;;;18.85;1.58;;;4.50;99.90;;;;;;5013356;28;20022;-76
2022/01/30 04:40:34;;;;;;;19.58;1.45;;;4.50;99.90;;;;;;5009906;28;20398;-75
2022/01/30 04:57:36;;;;;;;14.23;1.48;;;4.10;99.90;;;;;;5013306;28;20038;-77
2022/01/30 05:02:04;;;;;;;19.48;0.82;;;4.00;99.90;;;;;;5011531;28;20045;-78
2022/01/30 05:09:30;;;;;;;21.27;1.90;;;4.00;99.90;;;;;;5012597;28;20103;-77
2022/01/30 05:11:56;;;;;;;16.77;2.47;;;4.10;99.90;;;;;;5011334;28;20026;-77
2022/01/30 05:14:24;;;;;;;14.32;0.77;;;4.10;99.90;;;;;;5001676;28;20026;-78
2022/01/30 05:16:50;;;;;;;13.43;1.90;;;4.10;99.90;;;;;;5010523;28;20366;-77
2022/01/30 05:19:17;;;;;;;10.02;1.10;;;4.10;99.90;;;;;;5010369;28;20112;-78
2022/01/30 05:21:42;;;;;;;7.35;0.52;;;4.10;99.90;;;;;;5012123;28;20084;-77
2022/01/30 05:24:09;;;;;;;15.75;1.30;;;4.10;99.90;;;;;;5027068;28;20053;-77
2022/01/30 05:26:40;;;;;;;12.90;0.98;;;4.10;99.90;;;;;;5010961;28;20045;-77
2022/01/30 05:29:06;;;;;;;13.90;1.40;;;4.10;99.90;;;;;;5011130;28;20029;-78
2022/01/30 05:31:32;;;;;;;16.15;1.90;;;4.10;99.90;;;;;;5011547;28;20105;-78
2022/01/30 05:33:58;;;;;;;11.48;1.17;;;4.20;99.90;;;;;;5012102;28;20092;-77
2022/01/30 05:36:24;;;;;;;17.02;1.27;;;4.20;99.90;;;;;;5012187;28;20029;-77
2022/01/30 05:38:50;;;;;;;15.05;1.17;;;4.20;99.90;;;;;;5008987;28;20117;-78
2022/01/30 05:41:16;;;;;;;13.25;1.00;;;4.10;99.90;;;;;;5010893;28;20069;-77
2022/01/30 05:43:42;;;;;;;16.98;1.48;;;4.10;99.90;;;;;;5010529;28;20057;-77
2022/01/30 05:46:15;;;;;;;15.60;2.15;;;4.00;99.90;;;;;;5012402;28;20830;-77
2022/01/30 05:48:41;;;;;;;16.15;1.38;;;4.00;99.90;;;;;;5010839;28;20025;-77
2022/01/30 05:51:06;;;;;;;12.70;1.10;;;3.90;99.90;;;;;;5011221;28;20497;-77
2022/01/30 05:53:32;;;;;;;10.73;1.02;;;3.90;99.90;;;;;;5011475;28;20030;-78
2022/01/30 05:55:58;;;;;;;13.18;1.38;;;3.80;99.90;;;;;;5012078;28;20417;-77
2022/01/30 05:58:23;;;;;;;21.40;1.05;;;3.70;99.90;;;;;;5009957;28;20397;-77
2022/01/30 06:00:49;;;;;;;15.48;0.80;;;3.70;99.90;;;;;;5010217;28;20049;-78
2022/01/30 06:03:14;;;;;;;13.27;1.27;;;3.60;99.90;;;;;;5011124;28;20026;-77
2022/01/30 06:05:41;;;;;;;12.65;1.25;;;3.60;99.90;;;;;;5011257;28;20432;-77
2022/01/30 06:11:10;;;;;;;15.10;0.65;;;3.60;99.90;;;;;;4976303;28;20042;-77
2022/01/30 06:13:36;;;;;;;13.18;1.40;;;3.60;99.90;;;;;;5010423;28;20069;-76
2022/01/30 06:16:03;;;;;;;21.55;1.05;;;3.50;99.90;;;;;;5009678;28;20050;-76
2022/01/30 06:18:29;;;;;;;15.02;1.17;;;3.50;99.90;;;;;;5001914;28;20022;-77
2022/01/30 06:20:55;;;;;;;15.75;1.30;;;3.60;99.90;;;;;;5011205;28;20413;-77
2022/01/30 06:23:26;;;;;;;16.65;0.98;;;3.60;99.90;;;;;;5011072;28;20026;-77
2022/01/30 06:25:54;;;;;;;13.50;0.82;;;3.70;99.90;;;;;;5009532;28;20045;-77
2022/01/30 06:28:20;;;;;;;15.55;1.27;;;3.70;99.90;;;;;;5010707;28;20041;-77
2022/01/30 06:30:45;;;;;;;16.10;0.77;;;3.70;99.90;;;;;;5024261;28;20037;-77
2022/01/30 06:33:11;;;;;;;17.02;1.40;;;3.60;99.90;;;;;;5008463;28;20049;-77
2022/01/30 06:35:36;;;;;;;14.35;1.08;;;3.60;99.90;;;;;;5010460;28;20034;-78
2022/01/30 06:38:02;;;;;;;17.83;1.45;;;3.60;99.90;;;;;;5011563;28;20499;-76
2022/01/30 06:40:28;;;;;;;12.65;1.02;;;3.60;99.90;;;;;;5010525;28;20042;-76
2022/01/30 06:42:54;;;;;;;18.75;1.45;;;3.60;99.90;;;;;;5009736;28;20068;-76
2022/01/30 06:45:20;;;;;;;12.93;0.85;;;3.60;99.90;;;;;;5009661;28;20080;-77
2022/01/30 06:47:46;;;;;;;14.05;1.17;;;3.60;99.90;;;;;;5002529;28;20026;-76
2022/01/30 06:50:12;;;;;;;13.05;1.00;;;3.60;99.90;;;;;;5006637;28;20033;-76
2022/01/30 06:52:39;;;;;;;19.58;1.13;;;3.60;99.90;;;;;;5007699;28;20485;-76
2022/01/30 06:55:06;;;;;;;18.30;1.48;;;3.60;99.90;;;;;;5011165;28;20034;-76
2022/01/30 06:57:31;;;;;;;19.90;1.52;;;3.60;99.90;;;;;;5006023;28;21417;-76
2022/01/30 06:59:57;;;;;;;19.13;1.30;;;3.60;99.90;;;;;;5001977;28;20026;-77
2022/01/30 07:02:23;;;;;;;18.70;1.85;;;3.70;99.90;;;;;;5004585;28;20033;-75
2022/01/30 07:04:48;;;;;;;16.33;1.38;;;3.60;99.90;;;;;;5001824;28;20396;-75
2022/01/30 07:07:15;;;;;;;23.33;1.52;;;3.60;99.90;;;;;;4997756;28;20034;-77
2022/01/30 07:09:41;;;;;;;18.10;1.42;;;3.60;99.90;;;;;;5006383;28;20042;-76
2022/01/30 07:12:07;;;;;;;25.20;3.03;;;3.60;99.90;;;;;;5010392;28;20080;-78
2022/01/30 07:14:32;;;;;;;25.25;3.70;;;3.60;99.90;;;;;;5008973;28;20076;-76
2022/01/30 07:16:58;;;;;;;15.55;1.38;;;3.50;99.90;;;;;;5005709;28;20437;-75
2022/01/30 07:19:24;;;;;;;21.80;1.80;;;3.50;99.90;;;;;;5014082;28;20030;-76
2022/01/30 07:21:50;;;;;;;14.73;1.45;;;3.50;99.90;;;;;;5014596;28;20034;-76
2022/01/30 07:24:16;;;;;;;16.80;1.83;;;3.40;99.90;;;;;;5013059;28;20442;-76
2022/01/30 07:26:41;;;;;;;24.85;2.47;;;3.40;99.90;;;;;;5014445;28;20030;-77
2022/01/30 07:29:07;;;;;;;22.77;1.80;;;3.40;99.90;;;;;;5010059;28;20049;-76
2022/01/30 07:31:33;;;;;;;21.33;1.65;;;3.40;99.90;;;;;;5010658;28;20029;-76
2022/01/30 07:34:00;;;;;;;18.15;1.38;;;3.40;99.90;;;;;;5013019;28;20034;-77
2022/01/30 07:36:27;;;;;;;19.20;1.38;;;3.50;99.90;;;;;;5011287;28;20057;-76
2022/01/30 07:38:53;;;;;;;18.10;1.15;;;3.60;99.90;;;;;;5012371;28;20029;-76
2022/01/30 07:41:20;;;;;;;27.40;1.30;;;3.60;99.90;;;;;;5014854;28;20034;-76
2022/01/30 07:43:46;;;;;;;17.88;1.67;;;3.60;99.90;;;;;;5010852;28;20124;-76
2022/01/30 07:46:11;;;;;;;18.55;1.65;;;3.50;99.90;;;;;;5014122;28;20057;-75
2022/01/30 07:48:37;;;;;;;19.50;1.60;;;3.50;99.90;;;;;;5006389;28;20119;-76
2022/01/30 07:51:03;;;;;;;12.55;1.30;;;3.50;99.90;;;;;;5009340;28;20080;-76
2022/01/30 07:53:28;;;;;;;31.02;2.22;;;3.50;99.90;;;;;;5011417;28;20026;-76
2022/01/30 07:55:54;;;;;;;26.70;1.83;;;3.50;99.90;;;;;;5014579;28;20026;-76
2022/01/30 07:58:20;;;;;;;20.73;1.00;;;3.50;99.90;;;;;;5014554;28;20375;-76
2022/01/30 08:00:46;;;;;;;23.42;1.42;;;3.50;99.90;;;;;;5012416;28;20044;-75
2022/01/30 08:03:11;;;;;;;25.60;2.03;;;3.50;99.90;;;;;;5011401;28;20037;-77
2022/01/30 08:05:39;;;;;;;15.75;2.40;;;3.60;99.90;;;;;;5013131;28;20064;-77
2022/01/30 08:08:05;;;;;;;24.67;2.55;;;3.60;99.90;;;;;;5014891;28;20018;-77
2022/01/30 08:10:31;;;;;;;20.95;1.75;;;3.70;99.90;;;;;;5013966;28;20026;-77
2022/01/30 08:12:56;;;;;;;17.83;1.95;;;3.80;99.90;;;;;;5028753;28;20033;-77
2022/01/30 08:15:22;;;;;;;30.10;3.42;;;3.80;99.90;;;;;;5013106;28;20041;-77
2022/01/30 08:17:48;;;;;;;29.50;1.98;;;3.90;99.90;;;;;;5013925;28;20539;-77
2022/01/30 08:20:14;;;;;;;29.20;2.17;;;4.00;99.90;;;;;;5012459;28;20504;-77
2022/01/30 08:22:48;;;;;;;25.92;2.50;;;4.10;99.90;;;;;;5012101;28;20038;-78
2022/01/30 08:25:15;;;;;;;21.45;1.80;;;4.20;99.90;;;;;;5012572;28;20049;-77
2022/01/30 08:27:40;;;;;;;23.02;2.72;;;4.30;99.90;;;;;;5005748;28;20037;-77
2022/01/30 08:30:07;;;;;;;17.23;1.40;;;4.50;99.90;;;;;;4994498;28;20018;-77
2022/01/30 08:32:37;;;;;;;21.58;2.47;;;4.60;99.90;;;;;;5003808;28;20030;-76
2022/01/30 08:35:04;;;;;;;22.92;1.48;;;4.60;99.90;;;;;;5012831;28;20025;-76
2022/01/30 08:37:29;;;;;;;28.27;3.03;;;4.70;99.90;;;;;;5013977;28;20034;-77
2022/01/30 08:39:55;;;;;;;21.15;2.00;;;4.70;99.90;;;;;;5012729;28;20430;-77
2022/01/30 08:42:20;;;;;;;20.98;2.70;;;4.80;99.90;;;;;;5012244;28;20052;-77
2022/01/30 08:44:46;;;;;;;23.48;1.85;;;4.80;99.90;;;;;;5012181;28;20030;-78
2022/01/30 08:47:11;;;;;;;20.95;1.90;;;4.80;99.90;;;;;;5005346;28;20034;-78
2022/01/30 08:49:37;;;;;;;23.60;2.47;;;4.80;99.90;;;;;;5013529;28;20022;-78
2022/01/30 08:52:03;;;;;;;24.40;2.55;;;4.80;99.90;;;;;;5011435;28;20018;-78
2022/01/30 08:54:28;;;;;;;24.77;2.30;;;4.80;99.90;;;;;;5013500;28;20025;-77
2022/01/30 08:56:54;;;;;;;26.98;3.05;;;4.80;99.90;;;;;;5009151;28;20044;-77
2022/01/30 08:59:20;;;;;;;24.25;1.85;;;4.80;99.90;;;;;;5013817;28;20082;-77
2022/01/30 09:01:45;;;;;;;22.55;1.85;;;4.90;99.90;;;;;;5009424;28;20038;-77
2022/01/30 09:04:12;;;;;;;25.95;2.58;;;4.90;99.90;;;;;;5011600;28;20021;-77
2022/01/30 09:06:38;;;;;;;28.17;2.38;;;4.90;99.90;;;;;;5012147;28;20504;-77
2022/01/30 09:09:05;;;;;;;29.90;2.42;;;4.90;99.90;;;;;;5012719;28;20473;-77
2022/01/30 09:11:33;;;;;;;17.30;1.40;;;4.90;99.90;;;;;;5011609;28;20038;-77
2022/01/30 09:13:59;;;;;;;32.28;3.15;;;4.90;99.90;;;;;;5012047;28;20030;-77
2022/01/30 09:16:24;;;;;;;31.98;2.83;;;5.00;99.90;;;;;;5010679;28;20645;-78
2022/01/30 09:18:50;;;;;;;23.33;2.50;;;5.10;99.90;;;;;;5008064;28;20496;-76
2022/01/30 09:21:16;;;;;;;34.72;3.45;;;5.20;99.90;;;;;;5007635;28;20389;-78
2022/01/30 09:23:41;;;;;;;23.23;2.45;;;5.40;99.90;;;;;;5006625;28;20034;-77
2022/01/30 09:26:07;;;;;;;18.65;1.95;;;5.60;99.90;;;;;;5009363;28;20033;-75
2022/01/30 09:28:32;;;;;;;19.65;2.35;;;5.70;99.90;;;;;;5008701;28;20044;-77
2022/01/30 09:30:58;;;;;;;30.35;2.42;;;5.80;99.90;;;;;;5023423;28;20052;-77
2022/01/30 09:33:23;;;;;;;23.02;2.78;;;5.80;99.90;;;;;;5010205;28;20030;-77
2022/01/30 09:35:49;;;;;;;31.05;4.53;;;5.90;99.90;;;;;;5011010;28;20029;-77
2022/01/30 09:38:14;;;;;;;17.23;1.70;;;6.00;99.90;;;;;;5013146;28;20516;-76
2022/01/30 09:40:40;;;;;;;29.95;2.40;;;6.00;99.90;;;;;;5007454;28;21659;-76
2022/01/30 09:43:06;;;;;;;29.88;4.10;;;6.10;99.90;;;;;;5007642;28;20053;-77
2022/01/30 09:45:33;;;;;;;25.42;2.40;;;6.10;99.90;;;;;;5010914;28;20030;-77
2022/01/30 09:47:59;;;;;;;27.17;2.00;;;6.10;99.90;;;;;;5007790;28;20438;-77
2022/01/30 09:50:26;;;;;;;24.42;2.53;;;6.00;99.90;;;;;;5007500;28;20045;-77
2022/01/30 09:52:51;;;;;;;27.08;3.10;;;6.00;99.90;;;;;;5012657;28;20414;-77
2022/01/30 09:55:17;;;;;;;31.33;2.72;;;5.90;99.90;;;;;;5012902;28;20104;-77
2022/01/30 09:57:43;;;;;;;32.30;4.15;;;5.90;99.90;;;;;;5012381;28;20028;-76
2022/01/30 10:00:10;;;;;;;30.77;2.17;;;6.00;99.90;;;;;;5011323;28;20026;-77
2022/01/30 10:02:36;;;;;;;27.90;2.92;;;6.10;99.90;;;;;;5009937;28;20038;-77
2022/01/30 10:05:01;;;;;;;26.90;2.65;;;6.20;99.90;;;;;;5008939;28;20502;-77
2022/01/30 10:07:41;;;;;;;27.05;3.58;;;6.30;99.90;;;;;;5010932;28;20026;-77
2022/01/30 10:10:10;;;;;;;29.52;4.25;;;6.40;99.90;;;;;;5008284;28;20026;-79
2022/01/30 10:12:35;;;;;;;31.45;4.22;;;6.50;99.90;;;;;;5009055;28;20053;-77
2022/01/30 10:15:15;;;;;;;28.58;3.60;;;6.60;99.90;;;;;;5010204;28;20060;-77
2022/01/30 10:17:48;;;;;;;25.25;3.13;;;6.70;99.90;;;;;;5000285;28;20044;-78
2022/01/30 10:20:14;;;;;;;28.15;4.13;;;6.80;99.90;;;;;;4997696;28;20537;-77
2022/01/30 10:22:56;;;;;;;26.35;3.08;;;6.80;99.90;;;;;;5008477;28;20508;-78
2022/01/30 10:25:27;;;;;;;28.77;3.33;;;6.90;99.90;;;;;;5011210;28;20041;-77
2022/01/30 10:28:16;;;;;;;32.35;3.67;;;7.10;99.90;;;;;;5009525;28;20029;-77
2022/01/30 10:30:49;;;;;;;25.80;2.72;;;7.20;99.90;;;;;;5010053;28;20032;-77
2022/01/30 10:33:17;;;;;;;24.75;2.50;;;7.20;99.90;;;;;;5009557;28;20386;-76
2022/01/30 10:35:54;;;;;;;28.25;3.30;;;7.20;99.90;;;;;;5008710;28;20049;-76
2022/01/30 10:38:25;;;;;;;23.52;2.08;;;7.30;99.90;;;;;;5011267;28;20570;-77
2022/01/30 10:41:14;;;;;;;24.25;3.38;;;7.30;99.90;;;;;;5006075;28;20038;-76
2022/01/30 10:43:52;;;;;;;28.50;3.28;;;7.30;99.90;;;;;;5001511;28;20032;-76
2022/01/30 10:46:42;;;;;;;24.20;3.13;;;7.30;99.90;;;;;;5006207;28;20029;-77
2022/01/30 10:49:13;;;;;;;26.60;3.65;;;7.40;99.90;;;;;;4997557;28;20037;-77
2022/01/30 10:51:40;;;;;;;23.55;2.83;;;7.30;99.90;;;;;;5008410;28;20052;-77
2022/01/30 10:54:07;;;;;;;19.35;2.60;;;7.30;99.90;;;;;;5004974;28;20041;-77
2022/01/30 10:56:33;;;;;;;25.63;2.58;;;7.30;99.90;;;;;;5009866;28;20153;-77
2022/01/30 10:59:12;;;;;;;27.38;3.95;;;7.20;99.90;;;;;;5010612;28;20029;-77
2022/01/30 11:01:42;;;;;;;30.52;4.35;;;7.30;99.90;;;;;;5008061;28;20048;-77
2022/01/30 11:04:27;;;;;;;21.88;2.00;;;7.30;99.90;;;;;;5008060;28;20060;-77
2022/01/30 11:06:54;;;;;;;30.70;2.60;;;7.40;99.90;;;;;;5008396;28;20026;-77
2022/01/30 11:09:25;;;;;;;24.42;2.80;;;7.50;99.90;;;;;;5008800;28;20652;-77
2022/01/30 11:11:58;;;;;;;26.33;3.65;;;7.50;99.90;;;;;;5010815;28;20489;-77
2022/01/30 11:14:34;;;;;;;;;;;7.60;99.90;;;;;;5007657;28;20040;-77
2022/01/30 11:17:05;;;;;;;29.98;3.38;;;7.80;99.90;;;;;;5008994;28;20372;-77
2022/01/30 11:19:39;;;;;;;27.33;3.40;;;7.90;99.90;;;;;;5000353;28;20105;-77
2022/01/30 11:22:10;;;;;;;25.40;3.67;;;8.00;99.90;;;;;;5009928;28;20084;-77
2022/01/30 11:24:46;;;;;;;26.35;3.53;;;8.00;99.90;;;;;;5009274;28;20042;-77
2022/01/30 11:27:13;;;;;;;24.52;3.40;;;8.10;99.90;;;;;;5010537;28;20454;-77
2022/01/30 11:29:39;;;;;;;22.30;2.78;;;8.10;99.90;;;;;;5006756;28;20083;-77
2022/01/30 11:32:06;;;;;;;25.98;4.18;;;8.10;99.90;;;;;;5006144;28;20485;-77
2022/01/30 11:34:37;;;;;;;16.80;2.72;;;8.00;99.90;;;;;;5001997;28;20030;-78
2022/01/30 11:37:04;;;;;;;26.88;3.53;;;8.00;99.90;;;;;;5009481;28;20029;-76
2022/01/30 11:39:31;;;;;;;22.30;3.13;;;7.90;99.90;;;;;;5007798;28;20029;-78
2022/01/30 11:42:14;;;;;;;24.42;2.25;;;7.90;99.90;;;;;;5010212;28;20038;-78
2022/01/30 11:44:43;;;;;;;26.52;2.95;;;8.00;99.90;;;;;;5006514;28;20026;-78
2022/01/30 11:47:09;;;;;;;26.65;3.50;;;8.20;99.90;;;;;;5001453;28;20034;-77
2022/01/30 11:49:38;;;;;;;25.40;2.30;;;8.30;99.80;;;;;;5008487;28;20359;-78
2022/01/30 11:52:06;;;;;;;22.23;3.58;;;8.40;99.50;;;;;;5006240;28;20034;-78
2022/01/30 11:54:42;;;;;;;28.92;3.30;;;8.50;99.90;;;;;;5008182;28;20058;-78
2022/01/30 11:57:44;;;;;;;31.05;3.40;;;8.50;99.90;;;;;;5002884;28;20049;-78
2022/01/30 12:00:34;;;;;;;29.90;3.40;;;8.40;99.90;;;;;;5010636;28;20030;-77
2022/01/30 12:03:29;;;;;;;20.80;2.42;;;8.30;99.90;;;;;;5003586;28;20085;-78
2022/01/30 12:06:17;;;;;;;20.38;2.60;;;8.30;99.90;;;;;;5011621;28;20105;-78
2022/01/30 12:08:44;;;;;;;20.75;2.65;;;8.20;99.90;;;;;;5008773;28;20026;-77
2022/01/30 12:11:37;;;;;;;28.65;2.80;;;8.00;99.90;;;;;;5011793;28;20053;-78
2022/01/30 12:14:10;;;;;;;29.23;3.15;;;7.90;99.90;;;;;;5011592;28;20030;-78
2022/01/30 12:16:52;;;;;;;20.42;2.20;;;8.00;99.90;;;;;;5015081;28;20022;-78
2022/01/30 12:19:39;;;;;;;23.92;2.33;;;8.10;99.90;;;;;;5012804;28;20508;-78
2022/01/30 12:22:16;;;;;;;27.40;3.17;;;8.30;99.90;;;;;;5013933;28;20046;-78
2022/01/30 12:25:12;;;;;;;21.58;2.92;;;8.50;99.10;;;;;;5014744;28;20413;-78
2022/01/30 12:27:51;;;;;;;20.60;2.35;;;8.50;96.80;;;;;;5013909;28;20062;-78
2022/01/30 12:30:31;;;;;;;23.95;2.05;;;8.40;95.00;;;;;;5014071;28;20030;-77
2022/01/30 12:32:57;;;;;;;24.05;2.78;;;8.40;93.80;;;;;;5011584;28;20030;-77
2022/01/30 12:35:24;;;;;;;19.13;2.42;;;8.40;93.80;;;;;;5014349;28;20025;-77
2022/01/30 12:37:49;;;;;;;25.30;3.33;;;8.50;94.10;;;;;;5014410;28;20060;-79
2022/01/30 12:40:18;;;;;;;27.33;2.40;;;8.60;93.60;;;;;;5013623;28;20079;-78
2022/01/30 12:42:44;;;;;;;26.92;3.42;;;8.80;93.60;;;;;;5012641;28;20570;-78
2022/01/30 12:45:11;;;;;;;24.13;2.47;;;8.90;94.30;;;;;;5013390;28;20030;-78
2022/01/30 12:47:49;;;;;;;22.95;2.75;;;8.80;94.90;;;;;;5008412;28;20025;-78
2022/01/30 12:50:17;;;;;;;27.63;2.45;;;8.70;95.80;;;;;;4997842;28;20018;-78
2022/01/30 12:52:48;;;;;;;19.05;2.85;;;8.60;96.30;;;;;;5012872;28;20149;-78
2022/01/30 12:55:17;;;;;;;25.27;3.75;;;8.50;97.70;;;;;;5014047;28;20026;-78
2022/01/30 12:57:44;;;;;;;24.20;3.10;;;8.50;98.20;;;;;;5007098;28;20029;-78
2022/01/30 13:00:13;;;;;;;28.80;3.25;;;8.50;96.90;;;;;;5011688;28;20025;-78
2022/01/30 13:02:51;;;;;;;28.15;3.40;;;8.40;95.60;;;;;;5010549;28;20120;-78
2022/01/30 13:05:17;;;;;;;28.40;3.65;;;8.40;95.30;;;;;;5011813;28;20030;-78
2022/01/30 13:07:52;;;;;;;23.92;2.42;;;8.50;95.30;;;;;;5013763;28;20033;-78
2022/01/30 13:10:17;;;;;;;31.45;3.45;;;8.50;94.20;;;;;;5011154;28;20028;-78
2022/01/30 13:12:44;;;;;;;32.65;3.95;;;8.40;93.90;;;;;;5012378;28;20113;-78
2022/01/30 13:15:13;;;;;;;26.50;2.60;;;8.30;94.00;;;;;;5008391;28;20026;-78
2022/01/30 13:17:39;;;;;;;25.98;3.50;;;8.10;94.00;;;;;;5009385;28;20396;-78
2022/01/30 13:20:07;;;;;;;30.38;2.95;;;7.90;94.60;;;;;;5012869;28;20101;-78
2022/01/30 13:22:38;;;;;;;19.63;3.35;;;7.70;94.90;;;;;;5013083;28;20064;-78
2022/01/30 13:25:23;;;;;;;30.55;3.42;;;7.60;95.30;;;;;;5012582;28;20045;-77
2022/01/30 13:27:51;;;;;;;21.60;2.70;;;7.50;96.20;;;;;;5012037;28;20116;-77
2022/01/30 13:30:29;;;;;;;30.05;3.78;;;7.60;96.90;;;;;;5010768;28;20037;-77
2022/01/30 13:32:55;;;;;;;21.40;2.75;;;7.70;96.90;;;;;;5009166;28;20029;-77
2022/01/30 13:35:24;;;;;;;20.10;2.65;;;7.90;96.20;;;;;;5012886;28;20025;-77
2022/01/30 13:37:51;;;;;;;25.02;2.97;;;8.00;96.10;;;;;;5012116;28;20303;-78
2022/01/30 13:40:25;;;;;;;26.70;3.42;;;8.20;95.30;;;;;;5019920;28;20046;-77
2022/01/30 13:42:57;;;;;;;24.02;3.05;;;8.30;94.50;;;;;;5009629;28;20500;-78
2022/01/30 13:48:12;;;;;;;31.93;3.40;;;8.50;92.20;;;;;;4993215;28;20430;-78